Tiempo atmosférico en la estación meteorológica de Colmenar Viejo, Madrid (1004 m.)



Fecha
DESCASC
Temp. máxima en grados centígrados (hora)
DESCASC
Temp. mínima en grados centígrados (hora)
DESCASC
Temp. media en grados centígrados
DESCASC
Racha de viento máxima en m/sg (hora)
DESCASC
Velocidad máxima media en intervalos de 10 minutos(hora)
DESCASC
Precipitaciones diarias en mm
DESCASC
Precipitaciones de 00:00 a 06:00 en mm
DESCASC
Precipitaciones de 06:00 a 12:00 en mm
DESCASC
Precipitaciones de 12:00 a 18:00 en mm
DESCASC
Precipitaciones de 18:00 a 24:00 en mm
DESCASC
15-02-2019 13.9 (15:40) 2.8 (00:00) 8.3 6.94 (10:50) 1.94 (15:10) 0 0 0 0 0
25-01-2019 13.6 (15:00) 4.2 (00:00) 8.9 11.11 (11:40) 5.28 (13:00) 0 0 0 0 0
16-02-2019 13.3 (16:20) 5.6 (00:00) 9.5 6.67 (10:30) 4.17 (11:10) 0 0 0 0 0
06-02-2019 13.3 (16:20) 4 (00:00) 8.7 6.94 (21:20) 2.78 (14:30) 0 0 0 0 0
07-02-2019 13.1 (17:10) 4.3 (00:00) 8.7 10 (12:10) 3.61 (21:20) 0 0 0 0 0
05-02-2019 13 (16:10) 3.5 (00:00) 8.3 5 (15:10) 3.06 (15:40) 0 0 0 0 0
13-02-2019 12.7 (15:10) 3 (00:00) 7.8 10.56 (14:00) 2.78 (16:40) 0 0 0 0 0
11-02-2019 12.3 (15:50) 2.1 (00:00) 7.2 8.61 (21:50) 5 (17:30) 0 0 0 0 0
08-02-2019 12 (15:30) 3 (00:00) 7.5 5.83 (15:10) 3.61 (14:40) 0 0 0 0 0
28-01-2019 11.8 (16:10) 1.1 (00:00) 6.5 17.22 (09:50) 8.06 (09:50) 0 0 0 0 0
17-02-2019 11.6 (16:40) 4 (00:00) 7.8 5.83 (15:20) 3.06 (15:00) 0 0 0 0 0
26-01-2019 11.6 (15:20) 2.4 (00:00) 7 4.17 (16:00) 2.5 (16:00) 0 0 0 0 0
24-01-2019 10.7 (17:30) 6 (00:00) 8.3 16.94 (00:40) 6.67 (04:00) 0 0 0 0 0
09-02-2019 10.7 (16:00) 2.7 (00:00) 6.7 5.83 (17:00) 3.33 (17:50) 0 0 0 0 0
12-02-2019 10.6 (17:00) 0.3 (00:00) 5.5 9.72 (13:30) 5.28 (11:20) 0 0 0 0 0
04-02-2019 10.5 (17:00) -2.4 (-00:0) 4 8.06 (11:40) 2.78 (20:40) 0 0 0 0 0
14-02-2019 10.4 (16:50) 3.4 (00:00) 6.9 8.89 (16:00) 3.06 (00:40) 0 0 0 0 0
27-01-2019 9.7 (15:20) 2.5 (00:00) 6.1 16.39 (11:50) 8.89 (11:50) 0 0 0 0 0
31-01-2019 9.6 (15:00) 3.4 (00:00) 6.5 13.89 (07:50) 8.06 (13:30) 2.1 1.9 0.2 0 0
23-01-2019 9.4 (12:10) 3.1 (00:00) 6.2 18.61 (16:10) 6.39 (08:40) 0.1 0 0.1 0 0
29-01-2019 9.3 (13:50) 1.8 (00:00) 5.6 18.61 (15:00) 8.61 (15:10) 1 0 0 0.9 0.1
10-02-2019 9.1 (21:40) 0.6 (00:00) 4.9 10 (13:00) 6.11 (13:00) 0 0 0 0 0
20-01-2019 6.9 (14:40) 0.1 (00:00) 3.5 11.94 (12:40) 6.39 (12:50) 3.6 3.4 0.2 0 0
21-01-2019 6.9 (13:50) -0.1 (00:00) 3.4 11.67 (17:10) 6.39 (17:20) 0 0 0 0 0
01-02-2019 6.7 (01:30) 0.4 (00:00) 3.5 20.83 (23:50) 10 (13:50) 4.7 2.8 0.1 1.4 0.4
30-01-2019 6.1 (14:00) 0.5 (00:00) 3.3 12.78 (14:50) 6.94 (15:00) 7.7 0 0 0 7.7
22-01-2019 6.1 (13:10) -0.7 (-00:0) 2.7 15.28 (13:40) 5 (14:20) 0.9 0 0 0.8 0.1
03-02-2019 5.6 (16:10) -2.3 (-00:0) 1.6 13.33 (04:50) 6.11 (01:50) 0 0 0 0 0
02-02-2019 5.2 (13:10) -1.2 (-00:0) 2 20.28 (00:30) 9.72 (14:10) 0 0 0 0 0
19-01-2019 1 (11:00) -1.8 (-00:0) -0.4 3.61 (14:50) 2.22 (13:30) 5.3 0 0 1.3 4

Gráficas

Temp. máximas Temp. mínimas Temp. medias Precipitaciones Rachas de viento máximas Velocidades máximas media en intervalos de 10 minutos

Datos horarios

Fecha y hora oficial Temperatura (ºC) Velocidad del viento (km/h) Dirección del viento Racha (km/h) Dirección de racha Precipitación (mm) Presión (hPa) Tendencia (hPa) Humedad (%)
2019-02-17 23:00:00 6.7 8 Este 16 Sudeste 0 905.5 0.4 38
2019-02-17 22:00:00 8.2 5 Sudeste 8 Este 0 905.3 0.2 32
2019-02-17 21:00:00 7.3 3 Noroeste 9 Noroeste 0 905.3 0.2 33
2019-02-17 20:00:00 7.8 5 Noroeste 20 Norte 0 905.1 -0.4 33
2019-02-17 19:00:00 8.9 5 Noroeste 8 Noroeste 0 905.1 -0.8 32
2019-02-17 18:00:00 10.9 0 Calma 9 Sudeste 0 905.1 -1.5 30
2019-02-17 17:00:00 11.4 6 Sur 13 Sudeste 0 905.5 -1.8 30
2019-02-17 16:00:00 11.2 7 Este 21 Sur 0 905.9 -2.2 29
2019-02-17 15:00:00 10.9 11 Sur 20 Sur 0 906.6 -2.1 28
2019-02-17 14:00:00 10.5 6 Sudeste 16 Sudeste 0 907.3 -1.5 28
2019-02-17 13:00:00 10 5 Este 17 Sudeste 0 908.1 -1.1 28
2019-02-17 12:00:00 9.5 8 Sudeste 16 Sudeste 0 908.7 -0.3 30
2019-02-17 11:00:00 9.3 6 Sudeste 14 Sudeste 0 908.8 -0.1 30
2019-02-17 10:00:00 8.2 6 Este 10 Este 0 909.2 0.3 35
2019-02-17 09:00:00 5.7 3 Nordeste 10 Norte 0 909 -0.3 33
2019-02-17 08:00:00 4.1 5 Norte 7 Norte 0 908.9 0 35
2019-02-17 07:00:00 4.2 3 Norte 6 Oeste 0 908.9 -0.4 37
2019-02-17 06:00:00 4.5 0 Calma 6 Oeste 0 909.3 -0.5 38
2019-02-17 05:00:00 4.9 0 Calma 8 Norte 0 908.9 -1.2 39
2019-02-17 04:00:00 4.6 5 Norte 8 Norte 0 909.3 -1.1 44
2019-02-17 03:00:00 4.8 3 Noroeste 7 Noroeste 0 909.8 -0.7 44
2019-02-17 02:00:00 5.1 5 Noroeste 8 Noroeste 0 910.1 -0.6 44
2019-02-17 01:00:00 5.5 5 Noroeste 7 Noroeste 0 910.4 -0.1 42
2019-02-17 00:00:00 7.2 6 Sur 13 Sudeste 0 910.5 0.2 37
2019-02-16 23:00:00 7.7 8 Sudeste 14 Sudeste 0 910.7 0.8 37
2019-02-16 22:00:00 8.1 9 Sudeste 18 Sudeste 0 910.5 1.1 37
2019-02-16 21:00:00 8.8 7 Sudeste 16 Sudeste 0 910.3 1.2 36
2019-02-16 20:00:00 9.8 6 Sudeste 12 Sudeste 0 909.9 0.7 34
2019-02-16 19:00:00 10.9 5 Sudeste 12 Sudeste 0 909.4 -0.4 32
2019-02-16 18:00:00 12.7 5 Este 12 Este 0 909.1 -1.2 31
2019-02-16 17:00:00 12.8 5 Nordeste 12 Este 0 909.2 -1.8 30
2019-02-16 16:00:00 12.8 7 Este 18 Este 0 909.8 -2.1 32
2019-02-16 15:00:00 12.4 10 Este 23 Este 0 910.3 -2.2 33
2019-02-16 14:00:00 11.9 8 Este 20 Este 0 911 -1.4 36
2019-02-16 13:00:00 11.1 12 Este 21 Este 0 911.9 0 37
2019-02-16 12:00:00 10.5 10 Sudeste 24 Sudeste 0 912.5 0.9 37
2019-02-16 11:00:00 9.7 14 Sudeste 24 Sudeste 0 912.4 1.2 41
2019-02-16 10:00:00 9.5 4 Nordeste 8 Nordeste 0 911.9 1 53
2019-02-16 09:00:00 7 3 Nordeste 9 Nordeste 0 911.6 0.8 59
2019-02-16 08:00:00 5.8 5 Nordeste 9 Nordeste 0 911.2 0.5 60
2019-02-16 07:00:00 6.2 6 Nordeste 11 Norte 0 910.9 0 60
2019-02-16 06:00:00 6.7 6 Nordeste 12 Nordeste 0 910.8 -0.3 60
2019-02-16 05:00:00 6.3 5 Nordeste 8 Norte 0 910.7 -0.6 62
2019-02-16 04:00:00 6.9 4 Norte 10 Noroeste 0 910.9 -0.6 59
2019-02-16 03:00:00 7 7 Norte 9 Norte 0 911.1 -0.4 58
2019-02-16 02:00:00 7 3 Norte 6 Sudeste 0 911.3 -0.1 57
2019-02-16 01:00:00 8 5 Sudeste 8 Sudeste 0 911.5 0.5 54
2019-02-16 00:00:00 8.1 5 Sudeste 11 Sudeste 0 911.5 0.9 48
2019-02-15 23:00:00 8.9 3 Este 8 Nordeste 0 911.4 1 46
2019-02-15 22:00:00 8.6 6 Nordeste 7 Norte 0 911 0.8 46
2019-02-15 21:00:00 9.2 5 Nordeste 8 Norte 0 910.6 0.6 45
2019-02-15 20:00:00 9.5 5 Noroeste 9 Norte 0 910.4 0.2 46
2019-02-15 19:00:00 10.9 0 Calma 6 Sur 0 910.2 -0.3 42
2019-02-15 18:00:00 13.2 3 Sudeste 9 Este 0 910 -0.9 39
2019-02-15 17:00:00 13.4 5 Sudeste 13 Sudeste 0 910.2 -1.2 39
2019-02-15 16:00:00 13.8 5 Sudeste 14 Sur 0 910.5 -1.8 42
2019-02-15 15:00:00 13.8 7 Sur 14 Sudeste 0 910.9 -1.9 46
2019-02-15 14:00:00 12.6 4 Sudeste 13 Este 0 911.4 -1.3 49
2019-02-15 13:00:00 11.4 6 Este 19 Este 0 912.3 -0.7 53
2019-02-15 12:00:00 9.6 5 Este 13 Sur 0 912.8 0.2 57
2019-02-15 11:00:00 8.2 5 Sudeste 25 Este 0 912.7 0.5 61
2019-02-15 10:00:00 7.2 0 Calma 4 Oeste 0 913 0.6 64
2019-02-15 09:00:00 4.4 3 Norte 5 Norte 0 912.6 0.3 70
2019-02-15 08:00:00 3.2 2 Nordeste 5 Nordeste 0 912.2 -0.2 70
2019-02-15 07:00:00 2.9 2 Noroeste 5 Sudoeste 0 912.4 -0.1 70
2019-02-15 06:00:00 3.3 0 Calma 4 Norte 0 912.3 -0.5 70
2019-02-15 05:00:00 3.3 3 Noroeste 5 Noroeste 0 912.4 -0.8 68
2019-02-15 04:00:00 4.2 0 Calma 3 Sur 0 912.5 -0.8 63
2019-02-15 03:00:00 4.6 2 Este 5 Nordeste 0 912.8 -0.4 58
2019-02-15 02:00:00 4.8 3 Nordeste 8 Sudeste 0 913.2 -0.2 54
2019-02-15 01:00:00 5.4 5 Sudeste 8 Sudeste 0 913.3 -0.1 50
2019-02-15 00:00:00 6.8 5 Sudeste 7 Sudeste 0 913.2 -0.1 47
2019-02-14 23:00:00 6.7 3 Norte 10 Norte 0 913.4 0.1 44
2019-02-14 22:00:00 7.2 7 Norte 10 Norte 0 913.4 0.4 42
2019-02-14 21:00:00 7.3 6 Norte 12 Nordeste 0 913.3 0.4 40
2019-02-14 20:00:00 7.1 5 Norte 11 Norte 0 913.3 0.2 42
2019-02-14 19:00:00 8 4 Nordeste 15 Este 0 913 -0.2 38
2019-02-14 18:00:00 9.5 6 Sudeste 15 Sudeste 0 912.9 -0.6 35
2019-02-14 17:00:00 10.1 7 Sudeste 15 Sudeste 0 913.1 -1.1 35
2019-02-14 16:00:00 10.2 8 Sudeste 32 Sudeste 0 913.2 -1.7 37
2019-02-14 15:00:00 10 11 Sudeste 20 Sudeste 0 913.5 -2 37
2019-02-14 14:00:00 9.7 9 Sudeste 25 Sudeste 0 914.2 -1.4 41
2019-02-14 13:00:00 9.5 10 Sudeste 27 Sudeste 0 914.9 -0.7 42
2019-02-14 12:00:00 8.8 5 Este 18 Sudeste 0 915.5 0.2 43
2019-02-14 11:00:00 7.1 3 Este 14 Sur 0 915.6 0.8 45
2019-02-14 10:00:00 5.1 6 Sur 23 Sudeste 0 915.6 1.1 47
2019-02-14 09:00:00 4.8 3 Este 4 Este 0 915.3 0.9 45
2019-02-14 08:00:00 3.6 0 Calma 6 Este 0 914.8 0.6 45
2019-02-14 07:00:00 4.2 4 Este 10 Sudeste 0 914.5 0.3 44
2019-02-14 06:00:00 5 3 Este 8 Norte 0 914.4 -0.2 42
2019-02-14 05:00:00 5.2 5 Nordeste 8 Norte 0 914.2 -0.6 43
2019-02-14 04:00:00 5.3 4 Norte 8 Norte 0 914.2 -0.5 43
2019-02-14 03:00:00 5.4 6 Norte 9 Norte 0 914.6 0.1 44
2019-02-14 02:00:00 5.2 0 Calma 12 Este 0 914.8 0.5 43
2019-02-14 01:00:00 6 10 Este 15 Este 0 914.7 0.5 43
2019-02-14 00:00:00 7.8 5 Este 9 Este 0 914.5 0.8 42
2019-02-13 23:00:00 8.5 3 Nordeste 5 Nordeste 0 914.3 0.6 41
2019-02-13 22:00:00 8.8 4 Norte 13 Norte 0 914.2 0.8 41
2019-02-13 21:00:00 8.9 9 Norte 12 Norte 0 913.7 0.7 42
2019-02-13 20:00:00 9 6 Norte 10 Norte 0 913.7 0.6 40
2019-02-13 19:00:00 9.7 0 Calma 10 Sudeste 0 913.4 0.3 37
2019-02-13 18:00:00 11.2 8 Sudeste 13 Sudeste 0 913 -0.2 37
2019-02-13 17:00:00 11.9 9 Sudeste 15 Sudeste 0 913.1 -0.6 39
2019-02-13 16:00:00 12.4 6 Sudeste 16 Sudeste 0 913.1 -1.4 42
2019-02-13 15:00:00 12.2 4 Sudeste 24 Este 0 913.2 -1.5 45
2019-02-13 14:00:00 11.7 5 Sudeste 38 Sudeste 0 913.7 -0.7 47
2019-02-13 13:00:00 10.8 5 Este 18 Este 0 914.5 0.3 47
2019-02-13 12:00:00 9.8 4 Sudeste 12 Sudeste 0 914.7 0.7 50
2019-02-13 11:00:00 8.9 2 Sur 11 Sur 0 914.4 0.9 51
2019-02-13 10:00:00 7.6 0 Calma 3 Este 0 914.2 0.8 53
2019-02-13 09:00:00 4.5 3 Nordeste 5 Noroeste 0 914 0.3 53
2019-02-13 08:00:00 3.6 0 Calma 4 Oeste 0 913.5 -0.2 51
2019-02-13 07:00:00 3.8 0 Calma 3 Norte 0 913.4 -0.4 51
2019-02-13 06:00:00 4 3 Norte 6 Norte 0 913.7 -0.4 50
2019-02-13 05:00:00 4.3 0 Calma 5 Norte 0 913.7 -0.4 50
2019-02-13 04:00:00 4.5 2 Noroeste 4 Oeste 0 913.8 -0.5 49
2019-02-13 03:00:00 5.4 3 Sudeste 5 Sudeste 0 914.1 -0.6 44
2019-02-13 02:00:00 5.4 2 Sur 9 Sudeste 0 914.1 -0.9 46
2019-02-13 01:00:00 5.6 6 Noroeste 9 Noroeste 0 914.3 -0.5 45
2019-02-13 00:00:00 5.5 5 Noroeste 8 Noroeste 0 914.7 0 43
2019-02-12 23:00:00 5.6 5 Noroeste 10 Noroeste 0 915 0.4 42
2019-02-12 22:00:00 5.3 7 Noroeste 15 Norte 0 914.8 0.4 41
2019-02-12 21:00:00 6.6 9 Norte 15 Noroeste 0 914.7 0.6 39
2019-02-12 20:00:00 6.9 4 Noroeste 7 Noroeste 0 914.6 0.7 37
2019-02-12 19:00:00 8 4 Sudeste 11 Sudeste 0 914.4 0.4 36
2019-02-12 18:00:00 9.6 6 Sudeste 21 Sudeste 0 914.1 0 34
2019-02-12 17:00:00 10.5 4 Este 15 Este 0 913.9 -0.7 35
2019-02-12 16:00:00 10 10 Este 17 Sudeste 0 914 -1.3 38
2019-02-12 15:00:00 10 9 Sudeste 21 Este 0 914.1 -1.3 38
2019-02-12 14:00:00 9.1 9 Nordeste 35 Este 0 914.6 -0.5 40
2019-02-12 13:00:00 7.9 8 Nordeste 30 Sudeste 0 915.3 0.5 46
2019-02-12 12:00:00 6.7 15 Este 31 Sudeste 0 915.4 1 50
2019-02-12 11:00:00 5.8 16 Este 21 Este 0 915.1 1.3 49
2019-02-12 10:00:00 3.8 3 Este 12 Sudeste 0 914.8 1.4 66
2019-02-12 09:00:00 1.2 8 Este 10 Este 0 914.4 0.9 70
2019-02-12 08:00:00 0.7 5 Noroeste 10 Noroeste 0 913.8 0.1 70
2019-02-12 07:00:00 0.9 5 Nordeste 9 Este 0 913.4 -0.3 70
2019-02-12 06:00:00 0.9 7 Este 8 Este 0 913.5 -0.6 71
2019-02-12 05:00:00 1.4 4 Oeste 9 Noroeste 0 913.7 -0.9 69
2019-02-12 04:00:00 1.6 5 Noroeste 12 Noroeste 0 913.7 -0.8 71
2019-02-12 03:00:00 1.2 7 Noroeste 13 Norte 0 914.1 -0.5 73
2019-02-12 02:00:00 0.9 8 Noroeste 13 Norte 0 914.6 0.3 72
2019-02-12 01:00:00 1.7 2 Oeste 25 Este 0 914.5 0.7 69
2019-02-12 00:00:00 2.4 11 Nordeste 21 Este 0 914.6 1.3 69
2019-02-11 23:00:00 2.8 13 Este 19 Este 0 914.3 1.4 63
2019-02-11 22:00:00 4 15 Este 31 Este 0 913.8 1.6 51
2019-02-11 21:00:00 5.6 8 Este 18 Este 0 913.3 1.7 42
2019-02-11 20:00:00 6 7 Este 16 Este 0 912.9 1.5 41
2019-02-11 19:00:00 6.9 10 Sudeste 20 Sudeste 0 912.2 0.9 41
2019-02-11 18:00:00 9.7 11 Este 26 Este 0 911.6 0.5 29
2019-02-11 17:00:00 11.4 13 Este 22 Este 0 911.4 -0.2 26
2019-02-11 16:00:00 12.2 4 Este 17 Este 0 911.3 -1.3 25
2019-02-11 15:00:00 11.1 5 Este 15 Este 0 911.1 -1.9 31
2019-02-11 14:00:00 10.3 6 Nordeste 19 Este 0 911.6 -0.8 33
2019-02-11 13:00:00 9.7 4 Norte 14 Este 0 912.6 0.4 51
2019-02-11 12:00:00 8.2 9 Este 19 Este 0 913 1.8 59
2019-02-11 11:00:00 6.8 0 Calma 17 Este 0 912.4 1.9 62
2019-02-11 10:00:00 5.2 8 Este 15 Sudeste 0 912.2 2.5 71
2019-02-11 09:00:00 3 5 Sudeste 13 Sudeste 0 911.2 1.7 83
2019-02-11 08:00:00 2.6 5 Norte 9 Noroeste 0 910.5 1.5 86
2019-02-11 07:00:00 3 5 Noroeste 10 Noroeste 0 909.7 0.9 85
2019-02-11 06:00:00 2.9 5 Noroeste 8 Noroeste 0 909.5 1.4 83
2019-02-11 05:00:00 3.9 3 Norte 10 Este 0 909 0.4 81
2019-02-11 04:00:00 3.5 7 Nordeste 11 Nordeste 0 908.8 0.6 91
2019-02-11 03:00:00 4.6 8 Este 14 Sudeste 0 908.1 0.4 88
2019-02-11 02:00:00 5.6 6 Sudeste 23 Sudoeste 0 908.6 1 65
2019-02-11 01:00:00 6.9 7 Sudeste 23 Sudoeste 0 908.2 0.4 74
2019-02-11 00:00:00 6.1 11 Sur 24 Oeste 0 907.7 0.3 92
2019-02-10 23:00:00 7.8 10 Oeste 19 Oeste 0 907.6 0.2 58
2019-02-10 22:00:00 8.6 9 Oeste 21 Oeste 0 907.8 0.9 65
2019-02-10 21:00:00 7.5 5 Oeste 29 Oeste 0 907.4 0.7 90
2019-02-10 20:00:00 7.1 6 Sur 14 Sur 0 907.4 1 96
2019-02-10 19:00:00 7.2 9 Sur 17 Sur 0 906.9 0.7 94
2019-02-10 18:00:00 7.5 9 Sur 16 Sudeste 0 906.7 0.4 91
2019-02-10 17:00:00 7.6 10 Sur 22 Sudeste 0 906.4 -0.1 88
2019-02-10 16:00:00 7.7 14 Sur 25 Sur 0 906.2 -0.6 85
2019-02-10 15:00:00 8 13 Sur 21 Sur 0 906.3 -0.6 80
2019-02-10 14:00:00 7.5 16 Sudoeste 33 Sudoeste 0 906.5 -0.3 81
2019-02-10 13:00:00 7.5 22 Sudoeste 36 Sudoeste 0 906.8 0.1 80
2019-02-10 12:00:00 4.5 15 Sudoeste 27 Sudoeste 0 906.9 0.9 99
2019-02-10 11:00:00 3.7 10 Sur 25 Sur 0 906.8 1 99
2019-02-10 10:00:00 3.3 10 Sur 22 Sur 0 906.7 1.3 98
2019-02-10 09:00:00 1.5 8 Sudeste 14 Sur 0 906 0.8 99
2019-02-10 08:00:00 0.8 7 Este 13 Sudeste 0 905.8 0.7 99
2019-02-10 07:00:00 2 6 Sudeste 11 Sudeste 0 905.4 0 99
2019-02-10 06:00:00 1.4 0 Calma 13 Este 0 905.2 -0.3 99
2019-02-10 05:00:00 0.8 4 Este 9 Este 0 905.1 -0.8 99
2019-02-10 04:00:00 2.2 4 Este 7 Sudeste 0 905.4 -0.8 97
2019-02-10 03:00:00 2.9 3 Sudoeste 9 Sur 0 905.5 -0.7 94
2019-02-10 02:00:00 3.6 3 Sur 6 Sur 0 905.9 -0.6 93
2019-02-10 01:00:00 3.5 4 Sudoeste 10 Sur 0 906.2 0 93
2019-02-10 00:00:00 4.2 5 Sur 14 Sudoeste 0 906.2 0 86
2019-02-09 23:00:00 4.7 3 Sur 7 Sur 0 906.5 0.4 87
2019-02-09 22:00:00 4.7 2 Sudoeste 12 Oeste 0 906.2 0.4 85
2019-02-09 21:00:00 5.4 5 Oeste 19 Sudoeste 0 906.2 0.4 79
2019-02-09 20:00:00 5.9 10 Sudoeste 19 Sudoeste 0 906.1 0.3 73
2019-02-09 19:00:00 6.8 6 Sudoeste 15 Sudoeste 0 905.8 -0.4 66
2019-02-09 18:00:00 8.2 10 Sudoeste 21 Sudoeste 0 905.8 -0.8 59
2019-02-09 17:00:00 9.4 10 Sudoeste 21 Sudoeste 0 905.8 -1.3 54
2019-02-09 16:00:00 10.7 10 Sur 19 Sur 0 906.2 -1.7 54
2019-02-09 15:00:00 10.2 9 Sur 17 Sur 0 906.6 -1.5 58
2019-02-09 14:00:00 9.3 9 Sudeste 16 Sur 0 907.1 -1 60
2019-02-09 13:00:00 9.3 7 Sudeste 13 Sur 0 907.9 0.1 62
2019-02-09 12:00:00 8.8 4 Sudeste 10 Este 0 908.1 0.7 65
2019-02-09 11:00:00 7.9 3 Este 7 Este 0 908.1 1.3 67
2019-02-09 10:00:00 6.1 0 Calma 3 Nordeste 0 907.8 1 72
2019-02-09 09:00:00 3.3 0 Calma -- -- 0 907.4 0.7 78
2019-02-09 08:00:00 2.7 0 Calma 4 Noroeste 0 906.8 0 78
2019-02-09 07:00:00 3.4 0 Calma 6 Norte 0 906.8 -0.1 75
2019-02-09 06:00:00 3.6 3 Norte 5 Noroeste 0 906.7 -0.3 75
2019-02-09 05:00:00 3.3 3 Noroeste 5 Noroeste 0 906.8 -0.1 72
2019-02-09 04:00:00 4.8 4 Este 8 Este 0 906.9 -0.2 69
2019-02-09 03:00:00 4.8 4 Nordeste 7 Este 0 907 0 69
2019-02-09 02:00:00 5.2 0 Calma 9 Oeste 0 906.9 0.3 67
2019-02-09 01:00:00 5.2 4 Noroeste 10 Noroeste 0 907.1 0.5 66
2019-02-09 00:00:00 6.3 3 Sur 6 Sur 0 907 0.7 62
2019-02-08 23:00:00 6 0 Calma 7 Noroeste 0 906.6 0.5 62
2019-02-08 22:00:00 6.1 3 Nordeste 9 Este 0 906.6 1 62
2019-02-08 21:00:00 6.3 5 Nordeste 12 Sudoeste 0 906.3 0.8 62
2019-02-08 20:00:00 7.6 9 Sudoeste 17 Sudoeste 0 906.1 0.5 60
2019-02-08 19:00:00 8.3 10 Sudoeste 19 Sudoeste 0 905.6 -0.4 55
2019-02-08 18:00:00 10.6 8 Sudoeste 20 Sudoeste 0 905.5 -0.8 48
2019-02-08 17:00:00 11.6 10 Sur 21 Sudoeste 0 905.6 -1.3 47
2019-02-08 16:00:00 11.5 13 Sudoeste 21 Sudoeste 0 906 -1.5 49
2019-02-08 15:00:00 11.4 11 Sudoeste 21 Sur 0 906.3 -1.5 52
2019-02-08 14:00:00 10.3 8 Sur 17 Sudoeste 0 906.9 -0.7 55
2019-02-08 13:00:00 9.6 8 Sur 15 Sur 0 907.5 0.2 58
2019-02-08 12:00:00 8.5 5 Sur 15 Sudeste 0 907.8 0.6 58
2019-02-08 11:00:00 7 6 Este 14 Este 0 907.6 0.6 61
2019-02-08 10:00:00 5.2 5 Sudeste 9 Este 0 907.3 0.3 62
2019-02-08 09:00:00 3.6 5 Sudeste 9 Sur 0 907.2 0.1 64
2019-02-08 08:00:00 3 5 Sur 6 Norte 0 907 -0.4 63
2019-02-08 07:00:00 3.3 0 Calma 5 Norte 0 907 -0.7 63
2019-02-08 06:00:00 3.6 5 Norte 9 Norte 0 907.1 -0.9 62
2019-02-08 05:00:00 3.9 0 Calma 5 Sudeste 0 907.4 -0.7 62
2019-02-08 04:00:00 4.4 3 Oeste 6 Noroeste 0 907.7 -0.5 59
2019-02-08 03:00:00 4.7 0 Calma 7 Este 0 908 -0.3 57
2019-02-08 02:00:00 5 3 Nordeste 10 Norte 0 908.1 -0.2 55
2019-02-08 01:00:00 6.5 6 Norte 12 Norte 0 908.2 0.3 53
2019-02-08 00:00:00 6.2 4 Norte 7 Norte 0 908.3 0.6 54
2019-02-07 23:00:00 6.7 3 Nordeste 29 Este 0 908.3 0.7 51
2019-02-07 22:00:00 7.2 4 Nordeste 22 Este 0 907.9 0.7 49
2019-02-07 21:00:00 7.8 10 Este 22 Este 0 907.7 0.4 47
2019-02-07 20:00:00 8.8 9 Este 21 Este 0 907.6 0.7 47
2019-02-07 19:00:00 9.2 5 Este 14 Sudeste 0 907.2 0.2 46
2019-02-07 18:00:00 11.9 6 Sudeste 26 Sudeste 0 907.3 -0.4 42
2019-02-07 17:00:00 12.8 6 Sur 14 Sur 0 906.9 -1 42
2019-02-07 16:00:00 12.3 7 Sudeste 15 Sudeste 0 907 -1.3 42
2019-02-07 15:00:00 12.1 7 Sudeste 14 Sur 0 907.7 -1 42
2019-02-07 14:00:00 11.5 6 Sur 22 Sur 0 907.9 -0.5 43
2019-02-07 13:00:00 11 6 Sur 36 Sudeste 0 908.3 -0.2 49
2019-02-07 12:00:00 10.5 4 Sudeste 16 Nordeste 0 908.7 0.6 53
2019-02-07 11:00:00 8.4 3 Sudoeste 13 Nordeste 0 908.4 0.7 62
2019-02-07 10:00:00 7.2 0 Calma 7 Oeste 0 908.5 1.1 64
2019-02-07 09:00:00 5 0 Calma 5 Sur 0 908.1 0.8 69
2019-02-07 08:00:00 4.9 0 Calma 6 Sudeste 0 907.7 0.5 70
2019-02-07 07:00:00 4.7 4 Este 6 Este 0 907.4 -0.2 69
2019-02-07 06:00:00 4.7 3 Noroeste 8 Sudeste 0 907.3 -0.7 66
2019-02-07 05:00:00 6.4 0 Calma 4 Oeste 0 907.2 -0.9 62
2019-02-07 04:00:00 6.7 0 Calma 8 Noroeste 0 907.6 -0.7 66
2019-02-07 03:00:00 5.9 7 Noroeste 12 Noroeste 0 908 0 66
2019-02-07 02:00:00 5.5 5 Norte 9 Noroeste 0 908.1 0.1 65
2019-02-07 01:00:00 6.7 6 Nordeste 8 Este 0 908.3 0.2 66
2019-02-07 00:00:00 7.4 5 Sudeste 8 Sudeste 0 908 -0.4 65
2019-02-06 23:00:00 7.7 0 Calma 11 Este 0 908 -0.4 64
2019-02-06 22:00:00 7.9 4 Noroeste 25 Este 0 908.1 -0.2 63
2019-02-06 21:00:00 8.5 6 Noroeste 12 Norte 0 908.4 0.4 62
2019-02-06 20:00:00 8.5 5 Oeste 13 Sudoeste 0 908.4 0.2 60
2019-02-06 19:00:00 9.2 8 Sudoeste 13 Sudoeste 0 908.3 -0.3 54
2019-02-06 18:00:00 11.2 7 Sur 24 Sudoeste 0 908 -0.9 49
2019-02-06 17:00:00 13 7 Sur 16 Sur 0 908.2 -1.5 47
2019-02-06 16:00:00 12.9 9 Sur 15 Sur 0 908.6 -1.9 47
2019-02-06 15:00:00 12.7 7 Sudoeste 16 Sudoeste 0 908.9 -2.1 50
2019-02-06 14:00:00 12 5 Sur 14 Sur 0 909.7 -1.6 52
2019-02-06 13:00:00 11.3 6 Sur 19 Sudeste 0 910.5 -1 53
2019-02-06 12:00:00 10.6 5 Sur 11 Sur 0 911 -0.3 55
2019-02-06 11:00:00 9.5 6 Sudoeste 11 Sudeste 0 911.3 0.4 59
2019-02-06 10:00:00 7 3 Oeste 5 Sudoeste 0 911.5 0.8 67
2019-02-06 09:00:00 5 3 Noroeste 4 Oeste 0 911.3 0.4 72
2019-02-06 08:00:00 4.3 0 Calma 5 Noroeste 0 910.9 -0.2 71
2019-02-06 07:00:00 4.5 0 Calma 6 Noroeste 0 910.7 -1 70
2019-02-06 06:00:00 4.3 4 Noroeste 5 Noroeste 0 910.9 -0.9 67
2019-02-06 05:00:00 5 2 Este 4 Sudeste 0 911.1 -0.7 64
2019-02-06 04:00:00 5.4 0 Calma 8 Sudoeste 0 911.7 -0.4 62
2019-02-06 03:00:00 6.6 3 Sur 6 Sur 0 911.8 -0.7 58
2019-02-06 02:00:00 6.9 4 Norte 9 Noroeste 0 911.8 -0.7 57
2019-02-06 01:00:00 7.4 8 Norte 12 Norte 0 912.1 -0.3 57
2019-02-06 00:00:00 6.9 4 Norte 5 Nordeste 0 912.5 0.3 58
2019-02-05 23:00:00 7.3 2 Norte 9 Norte 0 912.5 0.2 57
2019-02-05 22:00:00 7.6 6 Norte 9 Norte 0 912.4 0.4 57
2019-02-05 21:00:00 7.6 3 Nordeste 9 Noroeste 0 912.2 0.6 57
2019-02-05 20:00:00 8 2 Noroeste 10 Sudoeste 0 912.3 0.5 53
2019-02-05 19:00:00 9.1 6 Sudoeste 12 Sudoeste 0 912 0 49
2019-02-05 18:00:00 11.8 7 Sudoeste 17 Sur 0 911.6 -0.5 43
2019-02-05 17:00:00 12.5 9 Sudoeste 18 Sudoeste 0 911.8 -1 41
2019-02-05 16:00:00 12.6 8 Sur 18 Sur 0 912 -1.3 41
2019-02-05 15:00:00 12.7 8 Sur 17 Sur 0 912.1 -1.8 42
2019-02-05 14:00:00 12.2 7 Sur 18 Sur 0 912.8 -0.9 42
2019-02-05 13:00:00 11.3 5 Sur 15 Sur 0 913.3 0 44
2019-02-05 12:00:00 10.8 4 Sur 11 Sur 0 913.9 0.8 46
2019-02-05 11:00:00 9.5 5 Sur 11 Sur 0 913.7 1.2 47
2019-02-05 10:00:00 6 4 Noroeste 7 Noroeste 0 913.3 1.1 50
2019-02-05 09:00:00 4.2 0 Calma 5 Oeste 0 913.1 1 49
2019-02-05 08:00:00 3.9 3 Oeste 6 Sudoeste 0 912.5 0.4 49
2019-02-05 07:00:00 3.8 0 Calma 5 Sudeste 0 912.2 0 51
2019-02-05 06:00:00 3.6 3 Noroeste 7 Noroeste 0 912.1 -0.3 57
2019-02-05 05:00:00 3.8 4 Noroeste 7 Noroeste 0 912.1 -0.5 53
2019-02-05 04:00:00 3.5 5 Noroeste 8 Noroeste 0 912.2 -0.6 54
2019-02-05 03:00:00 4.4 3 Oeste 6 Noroeste 0 912.4 -0.2 47
2019-02-05 02:00:00 4.9 0 Calma 4 Noroeste 0 912.6 -0.1 46
2019-02-05 01:00:00 5 0 Calma 6 Noroeste 0 912.8 0.3 47
2019-02-05 00:00:00 4.7 2 Norte 6 Noroeste 0 912.6 0.5 49
2019-02-04 23:00:00 4.9 4 Noroeste 8 Este 0 912.7 0.8 45
2019-02-04 22:00:00 5.8 4 Nordeste 10 Este 0 912.5 1 44
2019-02-04 21:00:00 5.5 6 Sur 28 Este 0 912.1 1 45
2019-02-04 20:00:00 7 6 Este 23 Sur 0 911.9 0.8 42
2019-02-04 19:00:00 6.5 5 Sudeste 6 Sudeste 0 911.5 0.3 43
2019-02-04 18:00:00 8.2 3 Este 11 Sur 0 911.1 -0.3 40
2019-02-04 17:00:00 10.4 5 Sudoeste 11 Sur 0 911.1 -0.9 36
2019-02-04 16:00:00 10.1 5 Sur 10 Sur 0 911.2 -1 34
2019-02-04 15:00:00 9.5 3 Este 8 Este 0 911.4 -1.3 35
2019-02-04 14:00:00 8.3 3 Sudoeste 12 Sur 0 912 -0.4 36
2019-02-04 13:00:00 7.8 4 Sur 17 Sur 0 912.2 -0.3 34
2019-02-04 12:00:00 5.6 4 Sur 29 Sudeste 0 912.7 0.6 47
2019-02-04 11:00:00 4.8 2 Sudoeste 14 Este 0 912.4 0.6 49
2019-02-04 10:00:00 3.1 0 Calma 18 Este 0 912.5 1.1 50
2019-02-04 09:00:00 0.3 0 Calma 10 Noroeste 0 912.1 0.5 54
2019-02-04 08:00:00 -2 6 Noroeste 11 Noroeste 0 911.8 0.2 62
2019-02-04 07:00:00 -1.4 0 Calma 8 Norte 0 911.4 -0.2 59
2019-02-04 06:00:00 -1.6 4 Nordeste 8 Norte 0 911.6 -0.3 62
2019-02-04 05:00:00 -1.9 0 Calma 7 Sudeste 0 911.6 -0.5 59
2019-02-04 04:00:00 -1.2 4 Este 8 Este 0 911.6 -0.3 57
2019-02-04 03:00:00 -1.2 4 Este 9 Este 0 911.9 0.1 57
2019-02-04 02:00:00 -1.2 5 Noroeste 8 Noroeste 0 912.1 0.5 56
2019-02-04 01:00:00 -0.5 4 Noroeste 7 Oeste 0 911.9 0.9 53
2019-02-04 00:00:00 -0.8 4 Noroeste 8 Norte 0 911.8 1.2 52
2019-02-03 23:00:00 -0.4 4 Noroeste 10 Norte 0 911.6 1.4 49
2019-02-03 22:00:00 0.2 6 Noroeste 9 Noroeste 0 911 1.2 50
2019-02-03 21:00:00 -0.4 3 Oeste 10 Noroeste 0 910.6 1.4 52
2019-02-03 20:00:00 0.2 5 Norte 17 Sur 0 910.2 0.8 48
2019-02-03 19:00:00 1.8 3 Sur 30 Sudeste 0 909.8 0.8 43
2019-02-03 18:00:00 3.8 7 Norte 17 Norte 0 909.2 0 39
2019-02-03 17:00:00 4.9 8 Nordeste 19 Nordeste 0 909.4 0.1 37
2019-02-03 16:00:00 5.1 5 Este 25 Noroeste 0 909 -0.1 36
2019-02-03 15:00:00 5 11 Noroeste 29 Norte 0 909.2 0.2 37
2019-02-03 14:00:00 4.4 15 Noroeste 31 Noroeste 0 909.3 0.8 36
2019-02-03 13:00:00 5 6 Este 15 Este 0 909.1 1 36
2019-02-03 12:00:00 3.9 5 Sur 14 Sudoeste 0 909 1.4 44
2019-02-03 11:00:00 2.3 6 Sudoeste 13 Sudoeste 0 908.5 1.9 49
2019-02-03 10:00:00 1.5 7 Nordeste 15 Sudeste 0 908.1 2.5 42
2019-02-03 09:00:00 -1.3 6 Sur 13 Sur 0 907.6 2.3 60
2019-02-03 08:00:00 -2 7 Sur 11 Sur 0 906.6 2.3 58
2019-02-03 07:00:00 -1.2 7 Sur 19 Sur 0 905.6 0.8 53
2019-02-03 06:00:00 -0.2 10 Sudeste 44 Nordeste 0 905.3 1.7 45
2019-02-03 05:00:00 0.8 17 Norte 48 Norte 0 904.3 0.8 41
2019-02-03 04:00:00 0.3 13 Nordeste 46 Este 0 904.8 1.6 44
2019-02-03 03:00:00 0 10 Nordeste 43 Noroeste 0 903.6 0.8 51
2019-02-03 02:00:00 0 18 Norte 46 Noroeste 0 903.5 1.3 52
2019-02-03 01:00:00 0 12 Norte 42 Noroeste 0 903.2 1.5 53
2019-02-03 00:00:00 0.3 19 Noroeste 49 Noroeste 0 902.8 1.4 53
2019-02-02 23:00:00 0.5 19 Noroeste 46 Noroeste 0 902.2 1 54
2019-02-02 22:00:00 0.8 24 Noroeste 50 Noroeste 0 901.7 1.3 51
2019-02-02 21:00:00 0.5 21 Noroeste 44 Noroeste 0 901.4 1.9 51
2019-02-02 20:00:00 0.2 17 Noroeste 41 Noroeste 0 901.2 1.8 60
2019-02-02 19:00:00 -0.4 13 Noroeste 38 Norte 0 900.4 2.3 69
2019-02-02 18:00:00 0.6 18 Norte 38 Norte 0 899.5 3.3 59
2019-02-02 17:00:00 0.4 18 Noroeste 41 Noroeste 0 899.4 4.2 69
2019-02-02 16:00:00 -1 24 Noroeste 56 Noroeste 0 898.1 2.8 91
2019-02-02 15:00:00 3.7 26 Noroeste 73 Noroeste 0 896.2 2.1 41
2019-02-02 14:00:00 3.8 26 Noroeste 56 Noroeste 0 895.2 1.4 40
2019-02-02 13:00:00 4.9 9 Sudoeste 59 Noroeste 0 895.3 2.8 36
2019-02-02 12:00:00 3.9 13 Oeste 57 Oeste 0 894.1 2.8 37
2019-02-02 11:00:00 4 6 Sudoeste 35 Nordeste 0 893.8 4.4 46
2019-02-02 10:00:00 1.1 8 Nordeste 30 Nordeste 0 892.5 4 54
2019-02-02 09:00:00 0.5 6 Norte 37 Nordeste 0 891.3 3.5 57
2019-02-02 08:00:00 1 12 Norte 57 Oeste 0 889.4 2.4 53
2019-02-02 07:00:00 0.3 15 Sudoeste 35 Sudoeste 0 888.5 2.7 62
2019-02-02 06:00:00 0.7 10 Oeste 33 Oeste 0 887.8 2.3 62
2019-02-02 05:00:00 1 14 Sudoeste 32 Oeste 0 887 3.5 60
2019-02-02 04:00:00 1.3 17 Oeste 39 Sudoeste 0 885.8 3.6 60
2019-02-02 03:00:00 1.5 19 Sudoeste 62 Oeste 0 885.5 3.7 60
2019-02-02 02:00:00 1.7 18 Oeste 69 Noroeste 0 883.5 2.1 59
2019-02-02 01:00:00 1.7 26 Noroeste 73 Noroeste 0 882.2 0.8 60
2019-02-02 00:00:00 1.8 29 Noroeste 75 Oeste 0.1 881.8 0.4 62
2019-02-01 23:00:00 0.8 20 Noroeste 58 Oeste 0 881.4 1.4 83
2019-02-01 22:00:00 0.8 24 Oeste 55 Oeste 0.1 881.4 2 87
2019-02-01 21:00:00 0.7 23 Oeste 68 Oeste 0.2 881.4 2.7 85
2019-02-01 20:00:00 1.8 29 Oeste 69 Oeste 0 880 1.9 67
2019-02-01 19:00:00 1.5 29 Oeste 53 Oeste 0 879.4 1.5 62
2019-02-01 18:00:00 2.4 24 Oeste 70 Oeste 0 878.7 0.5 63
2019-02-01 17:00:00 2.3 28 Oeste 64 Oeste 0.1 878.1 -0.5 70
2019-02-01 16:00:00 3.2 19 Oeste 53 Sudoeste 1.3 877.9 -1.6 81
2019-02-01 15:00:00 3.7 34 Sudoeste 64 Sudoeste 0 878.2 -2.2 78
2019-02-01 14:00:00 5.1 30 Sudoeste 59 Sudoeste 0 878.6 -2.2 69
2019-02-01 13:00:00 5 32 Sudoeste 52 Sudoeste 0 879.5 -1.3 72
2019-02-01 12:00:00 4.7 26 Sudoeste 46 Sudoeste 0.1 880.4 -0.2 73
2019-02-01 11:00:00 4.7 17 Oeste 45 Oeste 0 880.8 1 51
2019-02-01 10:00:00 3.9 16 Oeste 35 Oeste 0 880.8 1.4 64
2019-02-01 09:00:00 2.6 3 Sur 17 Sur 0 880.6 1 99
2019-02-01 08:00:00 3.1 7 Sudoeste 27 Sudoeste 0 879.8 -0.2 84
2019-02-01 07:00:00 3.8 13 Oeste 30 Oeste 0 879.4 -1.1 83
2019-02-01 06:00:00 4.4 18 Sudoeste 30 Sudoeste 0 879.6 -1.2 85
2019-02-01 05:00:00 4.4 17 Sudoeste 31 Oeste 0.1 880 -2 87
2019-02-01 04:00:00 4.5 20 Oeste 40 Oeste 0.3 880.5 -2.2 89
2019-02-01 03:00:00 4.3 21 Oeste 43 Sudoeste 1.6 880.8 -2.9 99
2019-02-01 02:00:00 6.6 19 Sudoeste 37 Sudoeste 0.7 882 -2.8 99
2019-02-01 01:00:00 6.5 19 Sudoeste 36 Sudoeste 0.1 882.7 -2.9 99
2019-02-01 00:00:00 6.4 21 Sudoeste 46 Sudoeste 0 883.7 -2.3 99
2019-01-31 23:00:00 6.4 18 Sudoeste 36 Sudoeste 0 884.8 -1.6 99
2019-01-31 22:00:00 6.7 17 Sudoeste 41 Sudoeste 0 885.6 -1.2 94
2019-01-31 21:00:00 7.1 26 Sudoeste 42 Sudoeste 0 886 -0.9 89
2019-01-31 20:00:00 7.3 16 Sudoeste 40 Sudoeste 0 886.4 -0.6 96
2019-01-31 19:00:00 7.5 22 Sudoeste 46 Sudoeste 0 886.8 -0.8 94
2019-01-31 18:00:00 8.3 24 Sudoeste 42 Sudoeste 0 886.9 -1.1 89
2019-01-31 17:00:00 8.7 28 Sudoeste 44 Sudoeste 0 887 -1.4 88
2019-01-31 16:00:00 8.5 21 Sudoeste 44 Sudoeste 0 887.6 -1.3 87
2019-01-31 15:00:00 9.4 23 Sudoeste 43 Sudoeste 0 888 -1.1 83
2019-01-31 14:00:00 8.7 28 Sudoeste 48 Sudoeste 0 888.4 -1.3 90
2019-01-31 13:00:00 7.5 26 Sudoeste 49 Sudoeste 0 888.9 -0.6 94
2019-01-31 12:00:00 8.3 27 Sudoeste 46 Oeste 0 889.1 -0.7 86
2019-01-31 11:00:00 7.3 23 Sudoeste 40 Sudoeste 0.1 889.7 0.7 93
2019-01-31 10:00:00 6.3 26 Sudoeste 43 Sudoeste 0 889.5 0.7 94
2019-01-31 09:00:00 7.4 21 Oeste 48 Sudoeste 0 889.8 0.9 59
2019-01-31 08:00:00 6.8 23 Oeste 50 Oeste 0 889 -0.1 69
2019-01-31 07:00:00 7.1 17 Sudoeste 35 Sudoeste 0.1 888.8 -0.7 99
2019-01-31 06:00:00 6 19 Sudoeste 29 Sudoeste 0 888.9 -0.8 99
2019-01-31 05:00:00 5.4 17 Sudoeste 36 Sudoeste 0.1 889.1 -0.7 99
2019-01-31 04:00:00 4.9 16 Sudoeste 48 Sudoeste 0 889.5 -1.2 99
2019-01-31 03:00:00 4.6 10 Sudoeste 30 Sudoeste 0.2 889.7 -1.3 99
2019-01-31 02:00:00 4.1 17 Sudoeste 28 Sudoeste 0.6 889.8 -2 99
2019-01-31 01:00:00 3.6 15 Sudoeste 32 Sudoeste 1 890.7 -1.8 99
2019-01-31 00:00:00 3.5 20 Sudoeste 31 Sudoeste 0.8 891 -2.1 99
2019-01-30 23:00:00 3 18 Sudoeste 26 Sudoeste 1.8 891.8 -2 99
2019-01-30 22:00:00 2.5 11 Sudoeste 22 Sudoeste 2.4 892.5 -1.9 99
2019-01-30 21:00:00 2.2 12 Sudoeste 23 Sudoeste 1.6 893.1 -1.6 99
2019-01-30 20:00:00 2.2 16 Sudoeste 29 Sudoeste 0.8 893.8 -1.3 99
2019-01-30 19:00:00 2.5 16 Sudoeste 26 Sudoeste 0.3 894.4 -0.9 91
2019-01-30 18:00:00 3.7 10 Oeste 24 Oeste 0 894.7 -1.2 73
2019-01-30 17:00:00 5.1 11 Oeste 31 Oeste 0 895.1 -1.4 53
2019-01-30 16:00:00 5.9 12 Oeste 42 Oeste 0 895.3 -1.5 42
2019-01-30 15:00:00 4.9 25 Oeste 46 Oeste 0 895.9 -1.6 44
2019-01-30 14:00:00 5.6 18 Sudoeste 34 Oeste 0 896.5 -1.4 46
2019-01-30 13:00:00 5.6 14 Oeste 36 Oeste 0 896.8 -0.9 45
2019-01-30 12:00:00 4.5 18 Oeste 37 Oeste 0 897.5 0 55
2019-01-30 11:00:00 3.3 17 Oeste 33 Oeste 0 897.9 0.9 58
2019-01-30 10:00:00 2.6 10 Oeste 23 Oeste 0 897.7 1.1 62
2019-01-30 09:00:00 1 4 Oeste 17 Noroeste 0 897.5 0.3 68
2019-01-30 08:00:00 0.6 6 Este 25 Oeste 0 897 0 69
2019-01-30 07:00:00 1.5 11 Oeste 27 Oeste 0 896.6 -0.7 65
2019-01-30 06:00:00 2.1 15 Noroeste 32 Noroeste 0 897.2 -0.2 64
2019-01-30 05:00:00 2.3 12 Noroeste 26 Noroeste 0 897 -0.2 63
2019-01-30 04:00:00 2 5 Noroeste 24 Oeste 0 897.3 -0.1 65
2019-01-30 03:00:00 2.1 6 Oeste 22 Oeste 0 897.4 0.4 66
2019-01-30 02:00:00 2.6 6 Oeste 23 Sudoeste 0 897.2 0.2 64
2019-01-30 01:00:00 3.1 9 Sudoeste 24 Sudeste 0 897.4 0.8 59
2019-01-30 00:00:00 2.8 11 Sudeste 31 Sudeste 0 897 0.6 59
2019-01-29 23:00:00 4.8 11 Sudeste 41 Sudeste 0 897 1.2 49
2019-01-29 22:00:00 4.7 15 Sudeste 40 Noroeste 0 896.6 1.3 50
2019-01-29 21:00:00 5.4 12 Noroeste 62 Noroeste 0 896.4 1.9 53
2019-01-29 20:00:00 6.5 21 Noroeste 51 Noroeste 0.1 895.8 0.7 55
2019-01-29 19:00:00 6.6 17 Oeste 53 Oeste 0 895.3 -0.6 70
2019-01-29 18:00:00 6 23 Oeste 54 Oeste 0 894.5 -1.3 85
2019-01-29 17:00:00 6.1 24 Oeste 56 Oeste 0.4 895.1 -1.8 88
2019-01-29 16:00:00 5.9 22 Oeste 55 Oeste 0.5 895.9 -1.7 86
2019-01-29 15:00:00 7.9 29 Oeste 67 Oeste 0 895.8 -3.2 61
2019-01-29 14:00:00 8.4 27 Oeste 61 Oeste 0 896.9 -2.4 54
2019-01-29 13:00:00 7.6 24 Sudoeste 47 Oeste 0 897.6 -2.4 62
2019-01-29 12:00:00 7.6 21 Sudoeste 42 Sudoeste 0 899 -1.1 62
2019-01-29 11:00:00 6.8 22 Oeste 45 Oeste 0 899.3 -0.9 63
2019-01-29 10:00:00 4.8 6 Sudeste 19 Sudeste 0 900 -0.5 68
2019-01-29 09:00:00 2.9 2 Sudoeste 14 Sudoeste 0 900.1 -1 68
2019-01-29 08:00:00 2.8 6 Oeste 36 Sudoeste 0 900.2 -0.6 65
2019-01-29 07:00:00 2.6 7 Sudoeste 24 Noroeste 0 900.5 -1.2 65
2019-01-29 06:00:00 2.2 15 Oeste 37 Oeste 0 901.1 -1 69
2019-01-29 05:00:00 1.9 13 Oeste 25 Oeste 0 900.8 -1.5 64
2019-01-29 04:00:00 2.1 5 Oeste 13 Oeste 0 901.7 -0.5 59
2019-01-29 03:00:00 2.7 4 Sudoeste 10 Sudoeste 0 902.1 -0.2 56
2019-01-29 02:00:00 3.3 4 Oeste 12 Noroeste 0 902.3 0.3 53
2019-01-29 01:00:00 3.6 4 Norte 10 Sudeste 0 902.2 -0.1 52
2019-01-29 00:00:00 4 0 Calma 14 Sudeste 0 902.3 0.1 51
2019-01-28 23:00:00 4.9 5 Noroeste 20 Oeste 0 902 0.2 48
2019-01-28 22:00:00 6.5 9 Noroeste 44 Noroeste 0 902.3 1.1 44
2019-01-28 21:00:00 6.3 7 Noroeste 22 Noroeste 0 902.2 1.5 48
2019-01-28 20:00:00 7.3 0 Calma 17 Oeste 0 901.8 1.1 50
2019-01-28 19:00:00 7.5 10 Oeste 28 Oeste 0 901.2 1.3 53
2019-01-28 18:00:00 9 6 Oeste 19 Sudoeste 0 900.7 0.9 45
2019-01-28 17:00:00 10.9 11 Oeste 30 Oeste 0 900.7 1.2 40
2019-01-28 16:00:00 11.5 6 Oeste 33 Oeste 0 899.9 -0.6 39
2019-01-28 15:00:00 10.4 20 Oeste 44 Sudoeste 0 899.8 -1.1 42
2019-01-28 14:00:00 10.3 21 Sudoeste 42 Sudoeste 0 899.5 -0.6 43
2019-01-28 13:00:00 10 17 Sudoeste 38 Sudoeste 0 900.5 0.7 43
2019-01-28 12:00:00 8.8 5 Sudoeste 54 Noroeste 0 900.9 0.5 46
2019-01-28 11:00:00 7.8 28 Noroeste 61 Noroeste 0 900.1 -0.5 46
2019-01-28 10:00:00 6.3 26 Noroeste 62 Noroeste 0 899.8 -1.1 50
2019-01-28 09:00:00 5.4 16 Noroeste 49 Noroeste 0 900.4 -1.2 53
2019-01-28 08:00:00 2 7 Este 21 Sudeste 0 900.6 -0.5 58
2019-01-28 07:00:00 2.6 5 Sudeste 23 Este 0 900.9 -1.1 57
2019-01-28 06:00:00 1.6 15 Este 27 Sur 0 901.6 0.3 58
2019-01-28 05:00:00 3.2 20 Sudeste 36 Sudeste 0 901.1 -0.4 54
2019-01-28 04:00:00 1.2 9 Sur 25 Este 0 902 -0.1 59
2019-01-28 03:00:00 3.2 3 Sur 23 Sudoeste 0 901.3 -0.8 49
2019-01-28 02:00:00 3 13 Sur 31 Sudoeste 0 901.5 -0.2 53
2019-01-28 01:00:00 3.3 13 Sudeste 27 Sudeste 0 902.1 -0.1 49
2019-01-28 00:00:00 2.5 3 Sur 16 Sur 0 902.1 0.1 51
2019-01-27 23:00:00 3.9 6 Oeste 22 Norte 0 901.7 -0.2 48
2019-01-27 22:00:00 5.1 13 Noroeste 29 Noroeste 0 902.2 0.9 45
2019-01-27 21:00:00 5 10 Noroeste 22 Oeste 0 902 1 48
2019-01-27 20:00:00 5.5 5 Norte 26 Norte 0 901.9 1.1 43
2019-01-27 19:00:00 5.5 11 Oeste 26 Oeste 0 901.3 1 42
2019-01-27 18:00:00 6.9 10 Norte 33 Sudoeste 0 901 1.4 37
2019-01-27 17:00:00 8.7 5 Noroeste 40 Sudoeste 0 900.8 1.1 37
2019-01-27 16:00:00 8.1 14 Oeste 30 Oeste 0 900.3 -0.4 37
2019-01-27 15:00:00 9.2 12 Este 50 Este 0 899.6 -1.2 36
2019-01-27 14:00:00 8.4 8 Sudoeste 55 Norte 0 899.7 -0.5 41
2019-01-27 13:00:00 7 14 Norte 50 Noroeste 0 900.7 1.3 45
2019-01-27 12:00:00 6 32 Noroeste 59 Noroeste 0 900.8 1.9 46
2019-01-27 11:00:00 5.6 15 Norte 27 Noroeste 0 900.2 1.7 59
2019-01-27 10:00:00 5.9 7 Oeste 26 Nordeste 0 899.4 1.2 60
2019-01-27 09:00:00 5.3 8 Nordeste 22 Noroeste 0 898.9 0.7 64
2019-01-27 08:00:00 5.7 7 Noroeste 24 Noroeste 0 898.5 0.2 59
2019-01-27 07:00:00 6.9 14 Oeste 36 Oeste 0 898.2 -1.6 57
2019-01-27 06:00:00 7.4 15 Oeste 48 Sudoeste 0 898.2 -1.6 50
2019-01-27 05:00:00 7.4 25 Oeste 50 Oeste 0 898.3 -2 47
2019-01-27 04:00:00 5.7 4 Sudeste 11 Sudeste 0 899.8 -1.1 53
2019-01-27 03:00:00 4.9 2 Noroeste 10 Nordeste 0 899.8 -1.5 59
2019-01-27 02:00:00 4.4 2 Sur 8 Nordeste 0 900.3 -1.2 66
2019-01-27 01:00:00 5.1 5 Sudeste 9 Este 0 900.9 -0.8 66
2019-01-27 00:00:00 4.5 5 Este 9 Sudeste 0 901.3 -0.9 71
2019-01-26 23:00:00 4.8 6 Este 10 Este 0 901.5 -1.2 68
2019-01-26 22:00:00 6.1 5 Este 7 Norte 0 901.7 -1 61
2019-01-26 21:00:00 6 4 Nordeste 6 Este 0 902.2 -0.7 63
2019-01-26 20:00:00 6.4 3 Sudeste 9 Sur 0 902.7 -0.5 59
2019-01-26 19:00:00 7.2 7 Sur 10 Sur 0 902.7 -0.9 55
2019-01-26 18:00:00 9.6 6 Sur 10 Sur 0 902.9 -1.2 49
2019-01-26 17:00:00 10.8 6 Sur 13 Sur 0 903.2 -1.4 45
2019-01-26 16:00:00 11 9 Sur 15 Sur 0 903.6 -1.8 47
2019-01-26 15:00:00 10.9 5 Sudoeste 13 Sudoeste 0 904.1 -1.8 49
2019-01-26 14:00:00 10.5 5 Sudoeste 13 Sudoeste 0 904.6 -1.2 49
2019-01-26 13:00:00 10.3 2 Sudoeste 10 Sur 0 905.4 -0.3 48
2019-01-26 12:00:00 9 4 Sur 8 Sudoeste 0 905.9 0.4 52
2019-01-26 11:00:00 7.7 2 Sudeste 8 Sudeste 0 905.8 0.5 57
2019-01-26 10:00:00 5.9 5 Sudeste 9 Sudeste 0 905.7 0.4 58
2019-01-26 09:00:00 4.4 4 Sudeste 8 Norte 0 905.5 0.2 58
2019-01-26 08:00:00 2.9 5 Noroeste 10 Noroeste 0 905.3 -0.2 62
2019-01-26 07:00:00 2.7 3 Norte 6 Norte 0 905.3 -0.2 63
2019-01-26 06:00:00 3.6 3 Este 6 Nordeste 0 905.3 -0.5 62
2019-01-26 05:00:00 3.3 5 Nordeste 8 Noroeste 0 905.5 -0.3 62
2019-01-26 04:00:00 3.8 4 Este 8 Noroeste 0 905.5 -0.2 60
2019-01-26 03:00:00 3.2 3 Norte 11 Sudeste 0 905.8 0.1 68
2019-01-26 02:00:00 3.5 2 Sur 11 Sudoeste 0 905.8 0.1 67
2019-01-26 01:00:00 4.3 6 Sudoeste 14 Sur 0 905.7 0.2 51
2019-01-26 00:00:00 6.2 4 Noroeste 12 Noroeste 0 905.7 0.5 45
2019-01-25 23:00:00 5.9 7 Noroeste 17 Noroeste 0 905.7 0.5 47
2019-01-25 22:00:00 4.5 8 Noroeste 18 Norte 0 905.5 1 50
2019-01-25 21:00:00 7.1 8 Nordeste 22 Nordeste 0 905.2 1.1 39
2019-01-25 20:00:00 7.2 9 Nordeste 21 Norte 0 905.2 1.3 41
2019-01-25 19:00:00 8.3 9 Nordeste 23 Nordeste 0 904.5 0.8 36
2019-01-25 18:00:00 12.2 4 Oeste 12 Oeste 0 904.1 0.3 33
2019-01-25 17:00:00 12.9 8 Oeste 30 Este 0 903.9 0 31
2019-01-25 16:00:00 12.3 17 Este 25 Nordeste 0 903.7 -0.7 34
2019-01-25 15:00:00 13.5 6 Norte 22 Nordeste 0 903.8 -0.7 31
2019-01-25 14:00:00 12.5 8 Nordeste 35 Nordeste 0 903.9 -0.6 37
2019-01-25 13:00:00 10.7 19 Nordeste 40 Este 0 904.4 0.5 44
2019-01-25 12:00:00 10.8 13 Nordeste 40 Nordeste 0 904.5 0.9 45
2019-01-25 11:00:00 9.7 10 Nordeste 21 Este 0 904.5 1.6 50
2019-01-25 10:00:00 8.4 9 Este 15 Este 0 903.9 1.5 56
2019-01-25 09:00:00 6.6 2 Nordeste 18 Este 0 903.6 1.5 61
2019-01-25 08:00:00 5.6 5 Nordeste 18 Nordeste 0 902.9 0.9 64
2019-01-25 07:00:00 5.3 5 Sur 19 Norte 0 902.4 0.6 63
2019-01-25 06:00:00 6.3 7 Sudeste 21 Sur 0 902.1 0.6 62
2019-01-25 05:00:00 6.4 3 Este 21 Norte 0 902 0.8 67
2019-01-25 04:00:00 6.3 6 Nordeste 21 Sur 0 901.8 0.3 68
2019-01-25 03:00:00 6 8 Sudeste 19 Sur 0 901.5 0.5 72
2019-01-25 02:00:00 6.6 3 Sudeste 19 Sur 0 901.2 0.9 68
2019-01-25 01:00:00 6.5 3 Sudoeste 17 Sur 0 901.5 1.8 67
2019-01-25 00:00:00 6.1 5 Sudoeste 17 Sur 0 901 1.3 64
2019-01-24 23:00:00 8.4 6 Noroeste 33 Norte 0 900.3 0.8 53
2019-01-24 22:00:00 9.2 12 Norte 40 Noroeste 0 899.7 0.9 52
2019-01-24 21:00:00 9.2 18 Norte 43 Norte 0 899.7 1.4 53
2019-01-24 20:00:00 9.4 19 Norte 40 Norte 0 899.5 1.5 53
2019-01-24 19:00:00 10.2 19 Norte 35 Noroeste 0 898.8 1.1 50
2019-01-24 18:00:00 10.7 15 Norte 34 Nordeste 0 898.3 0.9 50
2019-01-24 17:00:00 10.3 11 Norte 34 Nordeste 0 898 0.8 54
2019-01-24 16:00:00 9.8 8 Nordeste 24 Este 0 897.7 0.7 55
2019-01-24 15:00:00 9.8 11 Este 19 Este 0 897.4 1.1 55
2019-01-24 14:00:00 9.8 9 Sudeste 22 Sudeste 0 897.2 1.5 53
2019-01-24 13:00:00 9.9 2 Sudoeste 27 Noroeste 0 897 1.7 53
2019-01-24 12:00:00 10.3 3 Oeste 18 Oeste 0 896.3 1.6 52
2019-01-24 11:00:00 10.4 2 Sur 43 Oeste 0 895.7 1.2 51
2019-01-24 10:00:00 9.9 8 Sudoeste 32 Sudoeste 0 895.3 1.2 51
2019-01-24 09:00:00 8.5 7 Sudoeste 35 Oeste 0 894.7 1.2 53
2019-01-24 08:00:00 8.1 12 Noroeste 40 Noroeste 0 894.5 0.6 53
2019-01-24 07:00:00 7.6 4 Este 30 Sur 0 894.1 1.3 57
2019-01-24 06:00:00 7.9 4 Sudoeste 35 Oeste 0 893.5 0 55
2019-01-24 05:00:00 8.5 6 Oeste 54 Noroeste 0 893.9 0.6 51
2019-01-24 04:00:00 9.2 24 Noroeste 54 Noroeste 0 892.8 -1.1 49
2019-01-24 03:00:00 7.6 5 Oeste 25 Oeste 0 893.5 0 55
2019-01-24 02:00:00 7.4 5 Sur 34 Sudoeste 0 893.3 0.4 55
2019-01-24 01:00:00 8.2 9 Sudoeste 61 Noroeste 0 893.9 0.7 54
2019-01-24 00:00:00 8.3 10 Sudeste 43 Sudoeste 0 893.5 0 56
2019-01-23 23:00:00 8.2 20 Sudoeste 38 Sudoeste 0 892.9 -1 57
2019-01-23 22:00:00 8.2 15 Sudoeste 37 Sudoeste 0 893.2 -0.4 58
2019-01-23 21:00:00 8.2 16 Sudoeste 43 Sudoeste 0 893.5 0.7 59
2019-01-23 20:00:00 8.4 15 Sudoeste 37 Sudoeste 0 893.9 1 59
2019-01-23 19:00:00 8.9 14 Sudoeste 49 Sur 0 893.6 1.2 53
2019-01-23 18:00:00 8.8 3 Este 50 Oeste 0 892.8 0.9 52
2019-01-23 17:00:00 8.6 7 Oeste 67 Noroeste 0 892.9 0.2 55
2019-01-23 16:00:00 8.3 5 Sudoeste 42 Sudoeste 0 892.4 -0.2 57
2019-01-23 15:00:00 8.7 5 Sudoeste 47 Sur 0 891.9 -1 51
2019-01-23 14:00:00 8.6 9 Sur 56 Oeste 0 892.7 -0.4 52
2019-01-23 13:00:00 8.9 13 Oeste 47 Oeste 0 892.6 0.2 49
2019-01-23 12:00:00 9.1 11 Noroeste 44 Oeste 0 892.9 0.3 49
2019-01-23 11:00:00 8.3 10 Oeste 39 Noroeste 0 893.1 0.1 51
2019-01-23 10:00:00 7.3 17 Sudoeste 39 Sudoeste 0.1 892.4 -0.8 62
2019-01-23 09:00:00 5.5 17 Sudoeste 37 Sudoeste 0 892.6 -1.7 70
2019-01-23 08:00:00 5.2 15 Sudoeste 35 Sudoeste 0 893 -1.4 72
2019-01-23 07:00:00 4.7 11 Sudoeste 21 Oeste 0 893.2 -1.7 75
2019-01-23 06:00:00 4.3 2 Sur 21 Oeste 0 894.3 -0.9 73
2019-01-23 05:00:00 3.9 3 Oeste 23 Oeste 0 894.4 -1.4 76
2019-01-23 04:00:00 3.6 13 Oeste 28 Oeste 0 894.9 -1.4 79
2019-01-23 03:00:00 3.9 6 Oeste 17 Sudoeste 0 895.2 -1.7 72
2019-01-23 02:00:00 3.6 8 Oeste 40 Sudoeste 0 895.8 -1.3 74
2019-01-23 01:00:00 4.1 14 Sudoeste 28 Sudoeste 0 896.3 -1 70
2019-01-23 00:00:00 3.6 13 Sudoeste 40 Sudoeste 0 896.9 -1 81
2019-01-22 23:00:00 2.6 9 Sudeste 16 Sudoeste 0 897.1 -0.9 91
2019-01-22 22:00:00 2.8 10 Sudeste 16 Sudeste 0 897.3 -0.7 88
2019-01-22 21:00:00 2.6 11 Este 22 Sur 0 897.9 0 91
2019-01-22 20:00:00 2.5 9 Sudeste 16 Sudeste 0 898 0.1 98
2019-01-22 19:00:00 2.6 7 Sudeste 14 Sudeste 0.1 898 -0.3 94
2019-01-22 18:00:00 3.1 4 Sur 11 Sudoeste 0.3 897.9 -1.1 91
2019-01-22 17:00:00 2.9 9 Sudoeste 23 Sudoeste 0.3 897.9 -1.7 91
2019-01-22 16:00:00 2.5 11 Sudoeste 28 Oeste 0.2 898.3 -2.3 89
2019-01-22 15:00:00 3 13 Oeste 35 Oeste 0 899 -2.4 72
2019-01-22 14:00:00 4.9 13 Noroeste 55 Noroeste 0 899.6 -1.8 55
2019-01-22 13:00:00 5.2 4 Noroeste 13 Noroeste 0 900.6 -0.9 53
2019-01-22 12:00:00 4 5 Noroeste 18 Oeste 0 901.4 -0.1 58
2019-01-22 11:00:00 3 4 Sudoeste 19 Sudoeste 0 901.4 -0.4 61
2019-01-22 10:00:00 1.9 6 Oeste 16 Oeste 0 901.5 -0.6 62
2019-01-22 09:00:00 0.4 6 Este 10 Este 0 901.5 -1.1 63
2019-01-22 08:00:00 0.2 4 Este 11 Este 0 901.8 -1 63
2019-01-22 07:00:00 -0.4 5 Este 8 Sudeste 0 902.1 -1.8 64
2019-01-22 06:00:00 -0.3 4 Este 10 Nordeste 0 902.6 -1.8 63
2019-01-22 05:00:00 -0.4 4 Sudeste 9 Sudoeste 0 902.8 -1.8 60
2019-01-22 04:00:00 -0.3 3 Sur 9 Sudeste 0 903.9 -1.1 58
2019-01-22 03:00:00 -0.2 3 Sudoeste 9 Sudoeste 0 904.4 -0.6 57
2019-01-22 02:00:00 -0.1 4 Oeste 9 Oeste 0 904.6 -0.5 55
2019-01-22 01:00:00 0 6 Noroeste 11 Noroeste 0 905 -0.3 54
2019-01-22 00:00:00 -0.1 4 Oeste 8 Oeste 0 905 -0.2 48
2019-01-21 23:00:00 0.2 4 Noroeste 15 Noroeste 0 905.1 0.2 47
2019-01-21 22:00:00 1 0 Calma 26 Noroeste 0 905.3 0.3 46
2019-01-21 21:00:00 2.2 10 Norte 32 Nordeste 0 905.2 0.5 40
2019-01-21 20:00:00 2.6 11 Norte 37 Norte 0 904.9 0.4 41
2019-01-21 19:00:00 2.2 10 Norte 33 Norte 0 905 0.5 44
2019-01-21 18:00:00 3.2 17 Norte 42 Noroeste 0 904.7 0.4 44
2019-01-21 17:00:00 4.5 19 Norte 36 Norte 0 904.5 -0.2 40
2019-01-21 16:00:00 5.4 18 Norte 41 Noroeste 0 904.5 -0.6 39
2019-01-21 15:00:00 6.1 14 Norte 32 Norte 0 904.3 -0.7 37
2019-01-21 14:00:00 6.7 10 Norte 28 Norte 0 904.7 0.1 38
2019-01-21 13:00:00 6.3 12 Norte 26 Norte 0 905.1 0.1 42
2019-01-21 12:00:00 6 7 Noroeste 35 Norte 0 905 0.3 44
2019-01-21 11:00:00 4.8 16 Norte 33 Norte 0 904.6 0.4 50
2019-01-21 10:00:00 3.7 6 Norte 22 Norte 0 905 1.2 58
2019-01-21 09:00:00 2.7 12 Norte 26 Norte 0 904.7 1.4 59
2019-01-21 08:00:00 1.9 14 Noroeste 31 Noroeste 0 904.2 0.6 63
2019-01-21 07:00:00 1.7 7 Norte 19 Noroeste 0 903.8 0.4 64
2019-01-21 06:00:00 2 8 Noroeste 28 Noroeste 0 903.3 0.2 60
2019-01-21 05:00:00 1.9 6 Norte 21 Nordeste 0 903.6 0.1 60
2019-01-21 04:00:00 2 6 Norte 20 Norte 0 903.4 -0.1 58
2019-01-21 03:00:00 1.9 5 Nordeste 16 Este 0 903.1 0.1 61
2019-01-21 02:00:00 1.9 2 Nordeste 11 Norte 0 903.5 1.3 62
2019-01-21 01:00:00 2.3 4 Norte 18 Noroeste 0 903.5 1.1 60
2019-01-21 00:00:00 2.9 2 Noroeste 40 Norte 0 903 1.1 56
2019-01-20 23:00:00 3.6 22 Norte 40 Noroeste 0 902.2 0.5 55
2019-01-20 22:00:00 3.7 12 Norte 38 Noroeste 0 902.4 1.3 53
2019-01-20 21:00:00 4.3 18 Norte 34 Norte 0 901.9 1.5 51
2019-01-20 20:00:00 3.3 6 Nordeste 17 Nordeste 0 901.7 1.5 65
2019-01-20 19:00:00 3.9 5 Norte 18 Norte 0 901.1 1.3 59
2019-01-20 18:00:00 4.9 3 Oeste 24 Noroeste 0 900.4 0.9 52
2019-01-20 17:00:00 4.8 11 Norte 20 Norte 0 900.2 0.9 53
2019-01-20 16:00:00 5.2 0 Calma 26 Nordeste 0 899.8 0.8 53
2019-01-20 15:00:00 6.1 12 Noroeste 28 Norte 0 899.5 0.2 51
2019-01-20 14:00:00 6 14 Norte 41 Norte 0 899.3 0.8 51
2019-01-20 13:00:00 5.4 22 Norte 43 Norte 0 899 1.6 52
2019-01-20 12:00:00 5.8 8 Nordeste 25 Norte 0 899.3 3 60
2019-01-20 11:00:00 3.9 8 Nordeste 33 Nordeste 0 898.5 2.9 64
2019-01-20 10:00:00 3.6 11 Nordeste 28 Nordeste 0 897.4 3 66
2019-01-20 09:00:00 3.5 12 Este 30 Nordeste 0 896.3 2.8 70
2019-01-20 08:00:00 3.7 14 Nordeste 31 Norte 0 895.6 2.2 71
2019-01-20 07:00:00 3.3 10 Nordeste 27 Norte 0.2 894.4 1.1 85
2019-01-20 06:00:00 1.9 11 Norte 24 Norte 0.2 893.5 0.2 99
2019-01-20 05:00:00 0.8 3 Sudeste 10 Este 0.3 893.4 -0.2 99
2019-01-20 04:00:00 0.8 0 Calma 9 Nordeste 0.3 893.3 -0.8 99
2019-01-20 03:00:00 0.4 4 Este 12 Nordeste 0.6 893.3 -1.1 99
2019-01-20 02:00:00 0.4 0 Calma 5 Norte 1.1 893.6 -1.2 99
2019-01-20 01:00:00 0.4 0 Calma 5 Sur 0.9 894.1 -1 99
2019-01-20 00:00:00 0.4 0 Calma 7 Sudoeste 1.1 894.4 -1.2 99
2019-01-19 23:00:00 0.3 4 Sudoeste 9 Sudoeste 0.8 894.8 -1.6 99
2019-01-19 22:00:00 0.2 0 Calma 9 Sur 0.4 895.1 -1.4 99
2019-01-19 21:00:00 0 4 Sudoeste 9 Sudoeste 1.1 895.6 -1.3 99
2019-01-19 20:00:00 -0.1 5 Sudoeste 10 Sudoeste 0.5 896.4 -1 99
2019-01-19 19:00:00 -0.2 6 Sudoeste 10 Sudoeste 0.1 896.5 -1.5 99
2019-01-19 18:00:00 -0.3 2 Sudoeste 8 Sudoeste 0 896.9 -1.7 99
2019-01-19 17:00:00 -0.2 0 Calma 10 Sudoeste 0.2 897.4 -2.2 99
2019-01-19 16:00:00 -0.1 4 Sudoeste 12 Sudoeste 0.4 898 -2.7 99
2019-01-19 15:00:00 0 8 Sur 13 Sudoeste 0.5 898.6 -2.9 99
2019-01-19 14:00:00 0.1 6 Sur 12 Sur 0.2 899.6 -1.9 96
2019-01-19 13:00:00 0.9 4 Sur 8 Sur 0 900.7 -0.7 90
2019-01-19 12:00:00 0.8 4 Sur 8 Sur 0 901.5 0.6 89
2019-01-19 11:00:00 0.9 2 Sur 7 Sur 0 901.5 0.6 85
2019-01-19 10:00:00 -0.2 3 Sudeste 6 Sudeste 0 901.4 0.5 88
2019-01-19 09:00:00 -0.8 0 Calma 2 Sudeste 0 900.9 0 88
2019-01-19 08:00:00 -1 0 Calma 3 Oeste 0 900.9 -0.4 88
2019-01-19 07:00:00 -1.1 4 Oeste 4 Oeste 0 900.9 -0.8 88
2019-01-19 06:00:00 -0.9 3 Sudoeste 6 Sudoeste 0 900.9 -0.8 87
2019-01-19 05:00:00 -1.3 4 Oeste 9 Noroeste 0 901.3 -0.4 87
2019-01-19 04:00:00 -0.9 5 Noroeste 7 Oeste 0 901.7 -0.6 84
2019-01-19 03:00:00 -0.9 5 Oeste 8 Oeste 0 901.7 -0.6 84
2019-01-19 02:00:00 -0.9 0 Calma 5 Oeste 0 901.7 -0.3 79
2019-01-19 01:00:00 -0.3 0 Calma 7 Sudeste 0 902.3 0.8 76
2019-01-19 00:00:00 -0.1 0 Calma 5 Oeste 0 902.3 0.7 75